Time;durP1;ratioP1;P1;durP2;ratioP2;P2;SDS_P1;SDS_P2;PMS_P1;PMS_P2;Temp;Humidity;BMP_temperature;BMP_pressure;BME280_temperature;BME280_humidity;BME280_pressure;Samples;Min_cycle;Max_cycle;Signal;HPM_P1;HPM_P2
2022/11/23 00:00:08;;;;;;;16.60;4.20;;;3.20;99.90;;;1.85;100.00;96042.03;5068396;28;20415;-73
2022/11/23 00:02:34;;;;;;;19.25;4.80;;;3.20;99.90;;;1.89;100.00;96044.97;5070038;28;20469;-74
2022/11/23 00:05:00;;;;;;;19.50;5.00;;;3.20;99.90;;;1.88;100.00;96040.78;5069416;28;20399;-73
2022/11/23 00:07:27;;;;;;;18.48;4.90;;;3.20;99.90;;;1.84;100.00;96035.22;5068805;28;20473;-74
2022/11/23 00:09:53;;;;;;;17.08;5.22;;;3.20;99.90;;;1.85;100.00;96041.22;5069922;28;20958;-74
2022/11/23 00:12:18;;;;;;;15.65;4.90;;;3.20;99.90;;;1.79;100.00;96032.50;5069774;28;20407;-74
2022/11/23 00:14:44;;;;;;;18.30;4.87;;;3.10;99.90;;;1.83;100.00;96038.06;5069125;28;20445;-74
2022/11/23 00:17:10;;;;;;;23.13;5.38;;;3.10;99.90;;;1.79;100.00;96042.94;5069995;28;20403;-73
2022/11/23 00:19:36;;;;;;;17.80;5.15;;;3.10;99.90;;;1.77;100.00;96037.16;5069754;28;20750;-73
2022/11/23 00:22:02;;;;;;;26.38;4.93;;;3.10;99.90;;;1.80;100.00;96039.31;5069706;28;20423;-73
2022/11/23 00:24:29;;;;;;;16.02;5.20;;;3.10;99.90;;;1.76;100.00;96032.97;5068832;28;20457;-73
2022/11/23 00:26:55;;;;;;;15.30;4.85;;;3.10;99.90;;;1.78;100.00;96032.75;5069895;28;20400;-74
2022/11/23 00:29:21;;;;;;;17.00;6.22;;;3.10;99.90;;;1.80;100.00;96038.53;5067284;28;20426;-74
2022/11/23 00:31:47;;;;;;;15.90;5.07;;;3.10;99.90;;;1.80;100.00;96038.53;5049710;28;20523;-73
2022/11/23 00:34:14;;;;;;;21.25;5.05;;;3.10;99.90;;;1.76;100.00;96034.78;5048998;28;20398;-73
2022/11/23 00:36:40;;;;;;;15.48;5.22;;;3.10;99.90;;;1.74;100.00;96042.03;5049750;28;20423;-73
2022/11/23 00:39:06;;;;;;;12.30;4.90;;;3.00;99.90;;;1.78;100.00;96045.78;5063390;28;20518;-73
2022/11/23 00:41:33;;;;;;;16.37;4.70;;;3.10;99.90;;;1.82;100.00;96042.47;5049574;28;20531;-73
2022/11/23 00:43:59;;;;;;;17.45;4.57;;;3.10;99.90;;;1.85;100.00;96041.22;5048781;28;20423;-73
2022/11/23 00:46:26;;;;;;;16.42;5.22;;;3.20;99.90;;;1.93;100.00;96041.69;5049860;28;20405;-73
2022/11/23 00:48:55;;;;;;;19.13;5.18;;;3.20;99.90;;;1.99;100.00;96037.34;5049623;28;20397;-73
2022/11/23 00:51:23;;;;;;;18.27;5.30;;;3.30;99.90;;;2.04;100.00;96037.44;5067921;28;20404;-73
2022/11/23 00:53:50;;;;;;;15.80;5.10;;;3.30;99.90;;;2.05;100.00;96036.44;5068696;28;20886;-73
2022/11/23 00:56:17;;;;;;;15.35;4.80;;;3.30;99.90;;;2.09;100.00;96040.19;5071703;28;20531;-73
2022/11/23 00:58:49;;;;;;;15.27;4.20;;;3.40;99.90;;;2.08;100.00;96037.78;5073515;28;20403;-73
2022/11/23 01:01:16;;;;;;;19.30;5.15;;;3.40;99.90;;;2.09;100.00;96036.78;5072694;28;20486;-73
2022/11/23 01:03:45;;;;;;;18.45;5.55;;;3.40;99.90;;;2.11;100.00;96047.75;5072426;28;20412;-73
2022/11/23 01:06:13;;;;;;;17.77;5.22;;;3.40;99.90;;;2.09;100.00;96045.41;5065230;28;20532;-73
2022/11/23 01:08:40;;;;;;;13.38;4.75;;;3.40;99.90;;;2.10;100.00;96039.16;5073039;28;20443;-73
2022/11/23 01:11:09;;;;;;;16.05;4.70;;;3.40;99.90;;;2.08;100.00;96043.00;5072640;28;20417;-73
2022/11/23 01:13:36;;;;;;;15.85;4.40;;;3.40;99.90;;;2.03;100.00;96038.47;5072074;28;20927;-73
2022/11/23 01:16:04;;;;;;;14.88;4.35;;;3.30;99.90;;;2.01;100.00;96037.94;5072819;28;20431;-73
2022/11/23 01:18:29;;;;;;;15.55;4.55;;;3.30;99.90;;;2.02;100.00;96038.72;5072357;28;20418;-72
2022/11/23 01:20:55;;;;;;;16.33;5.00;;;3.30;99.90;;;1.97;100.00;96038.59;5072985;28;20404;-73
2022/11/23 01:23:21;;;;;;;14.65;4.82;;;3.30;99.90;;;1.90;100.00;96042.13;5053770;28;20800;-73
2022/11/23 01:25:47;;;;;;;13.23;4.47;;;3.20;99.90;;;1.92;100.00;96042.69;5072774;28;20403;-73
2022/11/23 01:28:14;;;;;;;17.88;5.05;;;3.20;99.90;;;1.91;100.00;96037.72;5054498;28;20811;-73
2022/11/23 01:30:40;;;;;;;12.30;4.30;;;3.20;99.90;;;1.89;100.00;96047.56;5071135;28;20889;-73
2022/11/23 01:33:07;;;;;;;15.75;4.80;;;3.20;99.90;;;1.87;100.00;96036.59;5071077;28;20421;-73
2022/11/23 01:35:33;;;;;;;14.25;4.40;;;3.20;99.90;;;1.92;100.00;96034.88;5072677;28;20411;-73
2022/11/23 01:37:59;;;;;;;17.73;4.55;;;3.20;99.90;;;1.92;100.00;96032.25;5072041;28;20430;-73
2022/11/23 01:40:24;;;;;;;15.27;4.97;;;3.20;99.90;;;1.99;100.00;96039.16;5072027;28;20552;-73
2022/11/23 01:42:54;;;;;;;15.93;5.10;;;3.30;99.90;;;1.98;100.00;96043.59;5070970;28;20502;-73
2022/11/23 01:45:38;;;;;;;15.88;4.10;;;3.30;99.90;;;1.97;100.00;96046.41;5072430;28;20403;-73
2022/11/23 01:48:13;;;;;;;16.00;4.37;;;3.30;99.90;;;1.97;100.00;96046.41;5072109;28;20532;-73
2022/11/23 01:50:41;;;;;;;15.38;4.43;;;3.20;99.90;;;1.94;100.00;96045.09;5071741;28;20408;-73
2022/11/23 01:53:07;;;;;;;15.15;4.55;;;3.20;99.90;;;1.93;100.00;96052.13;5071742;28;20404;-73
2022/11/23 01:55:34;;;;;;;15.65;4.15;;;3.30;99.90;;;1.89;100.00;96050.19;5072050;28;20913;-73
2022/11/23 01:58:02;;;;;;;17.17;4.72;;;3.20;99.90;;;1.85;100.00;96049.84;5054251;28;20399;-73
2022/11/23 02:00:28;;;;;;;10.10;4.22;;;3.20;99.90;;;1.85;100.00;96051.66;5053020;28;20999;-73
2022/11/23 02:02:59;;;;;;;16.45;4.35;;;3.10;99.90;;;1.83;100.00;96054.50;5071328;28;20506;-73
2022/11/23 02:05:32;;;;;;;16.02;4.45;;;3.10;99.90;;;1.85;100.00;96057.69;5072522;28;20396;-72
2022/11/23 02:08:00;;;;;;;19.40;4.47;;;3.10;99.90;;;1.84;100.00;96050.09;5072046;28;20429;-73
2022/11/23 02:10:27;;;;;;;19.67;4.40;;;3.20;99.90;;;1.83;100.00;96059.72;5062843;28;20487;-73
2022/11/23 02:12:54;;;;;;;15.68;4.50;;;3.10;99.90;;;1.79;100.00;96058.59;5071621;28;20399;-72
2022/11/23 02:15:20;;;;;;;16.95;4.43;;;3.10;99.90;;;1.79;100.00;96060.41;5072699;28;20403;-72
2022/11/23 02:17:46;;;;;;;17.98;4.70;;;3.10;99.90;;;1.72;100.00;96063.16;5072498;28;20443;-72
2022/11/23 02:20:16;;;;;;;14.77;4.60;;;3.00;99.90;;;1.69;100.00;96068.00;5071921;28;20443;-72
2022/11/23 02:22:56;;;;;;;15.82;4.20;;;3.00;99.90;;;1.62;100.00;96062.91;5072229;28;20458;-73
2022/11/23 02:25:33;;;;;;;11.75;4.00;;;2.90;99.90;;;1.57;100.00;96056.78;5074702;28;20422;-72
2022/11/23 02:28:01;;;;;;;13.83;4.17;;;2.90;99.90;;;1.54;100.00;96061.44;5075423;28;20441;-74
2022/11/23 02:30:29;;;;;;;12.77;4.47;;;2.80;99.90;;;1.51;100.00;96067.09;5055388;28;20400;-73
2022/11/23 02:32:56;;;;;;;17.55;4.70;;;2.80;99.90;;;1.52;100.00;96058.25;5053130;28;20828;-73
2022/11/23 02:35:22;;;;;;;18.45;4.43;;;2.80;99.90;;;1.52;100.00;96060.84;5071954;28;20803;-73
2022/11/23 02:37:49;;;;;;;18.05;4.85;;;2.90;99.90;;;1.53;100.00;96059.84;5064896;28;20414;-73
2022/11/23 02:40:24;;;;;;;17.33;4.77;;;2.80;99.90;;;1.52;100.00;96065.28;5071587;28;20411;-72
2022/11/23 02:42:50;;;;;;;14.52;5.03;;;2.80;99.90;;;1.49;100.00;96066.53;5070956;28;20506;-73
2022/11/23 02:45:27;;;;;;;17.90;4.38;;;2.80;99.90;;;1.47;100.00;96073.00;5071797;28;20404;-73
2022/11/23 02:47:53;;;;;;;18.10;4.35;;;2.80;99.90;;;1.47;100.00;96071.19;5071335;28;20407;-73
2022/11/23 02:50:20;;;;;;;14.48;4.45;;;2.80;99.90;;;1.48;100.00;96066.75;5071347;28;20404;-72
2022/11/23 02:52:46;;;;;;;16.25;4.30;;;2.80;99.90;;;1.46;100.00;96063.56;5070389;28;20403;-73
2022/11/23 02:55:12;;;;;;;14.40;4.47;;;2.80;99.90;;;1.45;100.00;96060.19;5071444;28;20403;-73
2022/11/23 02:57:38;;;;;;;13.25;4.32;;;2.80;99.90;;;1.47;100.00;96065.97;5071502;28;20396;-73
2022/11/23 03:00:05;;;;;;;18.10;4.35;;;2.80;99.90;;;1.47;100.00;96065.97;5071091;28;20900;-73
2022/11/23 03:02:33;;;;;;;15.48;4.32;;;2.80;99.90;;;1.46;100.00;96063.56;5071235;28;20415;-72
2022/11/23 03:04:58;;;;;;;10.98;4.20;;;2.80;99.90;;;1.47;100.00;96063.34;5070583;28;20400;-73
2022/11/23 03:07:24;;;;;;;15.73;4.55;;;2.80;99.90;;;1.48;100.00;96066.75;5071287;28;20904;-73
2022/11/23 03:09:50;;;;;;;12.20;4.23;;;2.80;99.90;;;1.49;100.00;96068.34;5070504;28;20407;-73
2022/11/23 03:12:16;;;;;;;18.23;4.28;;;2.80;99.90;;;1.50;100.00;96078.53;5071162;28;20408;-73
2022/11/23 03:14:42;;;;;;;21.25;4.75;;;2.80;99.90;;;1.50;100.00;96078.53;5070212;28;20550;-73
2022/11/23 03:17:08;;;;;;;18.92;4.68;;;2.80;99.90;;;1.51;100.00;96074.13;5071226;28;20455;-73
2022/11/23 03:19:35;;;;;;;16.50;4.55;;;2.80;99.90;;;1.50;100.00;96068.09;5069866;28;20541;-73
2022/11/23 03:22:02;;;;;;;18.67;4.43;;;2.80;99.90;;;1.50;100.00;96064.72;5070585;28;20434;-73
2022/11/23 03:24:27;;;;;;;12.77;4.78;;;2.80;99.90;;;1.49;100.00;96066.53;5069696;28;20396;-73
2022/11/23 03:26:53;;;;;;;16.27;4.47;;;2.80;99.90;;;1.53;100.00;96062.44;5050979;28;20917;-73
2022/11/23 03:29:19;;;;;;;18.85;4.35;;;2.80;99.90;;;1.53;100.00;96072.09;5057002;28;20412;-72
2022/11/23 03:31:45;;;;;;;16.20;4.87;;;2.80;99.90;;;1.53;100.00;96069.47;5070934;28;20764;-73
2022/11/23 03:34:11;;;;;;;19.77;4.72;;;2.80;99.90;;;1.49;100.00;96068.34;5069667;28;20486;-73
2022/11/23 03:36:39;;;;;;;17.05;4.18;;;2.80;99.90;;;1.46;100.00;96071.41;5070544;28;20435;-73
2022/11/23 03:39:04;;;;;;;12.27;4.05;;;2.70;99.90;;;1.48;100.00;96067.56;5069907;28;20419;-73
2022/11/23 03:41:30;;;;;;;11.93;4.20;;;2.80;99.90;;;1.52;100.00;96060.06;5070379;28;20419;-73
2022/11/23 03:43:56;;;;;;;18.35;4.40;;;2.80;99.90;;;1.61;100.00;96060.53;5069539;28;20411;-73
2022/11/23 03:46:22;;;;;;;19.33;4.72;;;2.90;99.90;;;1.67;100.00;96065.63;5070389;28;20407;-73
2022/11/23 03:48:48;;;;;;;17.40;4.55;;;3.00;99.90;;;1.77;100.00;96065.84;5070693;28;20407;-73
2022/11/23 03:51:14;;;;;;;16.60;4.25;;;3.00;99.90;;;1.91;100.00;96061.97;5069995;28;20435;-73
2022/11/23 03:53:41;;;;;;;13.27;4.00;;;3.20;99.90;;;1.97;100.00;96054.25;5069353;28;21006;-73
2022/11/23 03:56:07;;;;;;;9.90;3.80;;;3.20;99.90;;;1.99;100.00;96058.22;5070368;28;20793;-73
2022/11/23 03:58:33;;;;;;;16.55;4.38;;;3.30;99.90;;;2.03;100.00;96053.38;5069868;28;20411;-73
2022/11/23 04:00:59;;;;;;;14.00;3.97;;;3.30;99.90;;;2.08;100.00;96050.84;5070165;28;20898;-73
2022/11/23 04:03:25;;;;;;;15.30;3.90;;;3.40;99.90;;;2.11;100.00;96050.38;5068984;28;20412;-73
2022/11/23 04:05:51;;;;;;;9.90;3.60;;;3.40;99.90;;;2.15;100.00;96052.31;5070192;28;20426;-73
2022/11/23 04:08:17;;;;;;;13.35;3.88;;;3.40;99.90;;;2.12;100.00;96050.16;5070025;28;20769;-73
2022/11/23 04:10:44;;;;;;;10.65;3.42;;;3.40;99.90;;;2.05;100.00;96051.28;5070038;28;20404;-73
2022/11/23 04:13:10;;;;;;;11.23;3.50;;;3.30;99.90;;;2.00;100.00;96044.16;5068912;28;20400;-73
2022/11/23 04:15:36;;;;;;;10.77;3.70;;;3.30;99.90;;;1.94;100.00;96048.50;5070077;28;20410;-73
2022/11/23 04:18:02;;;;;;;12.25;3.42;;;3.20;99.90;;;1.90;100.00;96043.94;5051956;28;20447;-73
2022/11/23 04:20:28;;;;;;;14.77;3.92;;;3.20;99.90;;;1.85;100.00;96039.41;5069655;28;20416;-73
2022/11/23 04:22:54;;;;;;;12.82;3.60;;;3.10;99.90;;;1.77;100.00;96042.38;5068750;28;20966;-73
2022/11/23 04:25:20;;;;;;;12.00;3.87;;;3.10;99.90;;;1.71;100.00;96043.28;5070048;28;20492;-73
2022/11/23 04:27:47;;;;;;;10.82;3.55;;;3.00;99.90;;;1.72;100.00;96057.94;5051863;28;20442;-73
2022/11/23 04:30:14;;;;;;;19.05;4.00;;;3.00;99.90;;;1.68;100.00;96042.94;5069419;28;20404;-73
2022/11/23 04:32:42;;;;;;;15.20;4.05;;;3.00;99.90;;;1.64;100.00;96040.00;5068980;28;20423;-73
2022/11/23 04:35:08;;;;;;;12.88;3.90;;;2.90;99.90;;;1.64;100.00;96039.22;5069522;28;20399;-73
2022/11/23 04:37:34;;;;;;;17.85;4.40;;;2.90;99.90;;;1.65;100.00;96044.22;5062232;28;20409;-71
2022/11/23 04:40:00;;;;;;;16.35;4.38;;;2.90;99.90;;;1.68;100.00;96048.16;5097109;22;20430;-74
2022/11/23 04:42:27;;;;;;;15.35;4.30;;;3.00;99.90;;;1.71;100.00;96039.88;5089523;28;20516;-74
2022/11/23 04:44:56;;;;;;;20.60;4.25;;;3.00;99.90;;;1.73;100.00;96043.06;5089136;28;20543;-74
2022/11/23 04:47:22;;;;;;;16.77;4.55;;;3.00;99.90;;;1.75;100.00;96048.84;5089040;28;20561;-74
2022/11/23 04:49:48;;;;;;;15.13;4.27;;;3.00;99.90;;;1.80;100.00;96041.13;5089821;28;20401;-73
2022/11/23 04:52:14;;;;;;;12.13;4.07;;;3.10;99.90;;;1.84;100.00;96037.03;5087597;28;20772;-73
2022/11/23 04:54:40;;;;;;;12.17;3.90;;;3.10;99.90;;;1.90;100.00;96028.28;5088772;28;20934;-72
2022/11/23 04:57:06;;;;;;;13.90;3.88;;;3.20;99.90;;;1.97;100.00;96030.78;5089541;28;20963;-72
2022/11/23 04:59:31;;;;;;;17.55;4.20;;;3.20;99.90;;;2.04;100.00;96034.84;5089771;28;20397;-72
2022/11/23 05:01:59;;;;;;;14.25;3.80;;;3.30;99.90;;;2.05;100.00;96033.81;5074382;28;20485;-72
2022/11/23 05:04:25;;;;;;;11.52;3.20;;;3.30;99.90;;;2.08;100.00;96035.19;5068770;28;20414;-72
2022/11/23 05:06:50;;;;;;;11.18;3.70;;;3.40;99.90;;;2.08;100.00;96041.19;5075787;28;20414;-72
2022/11/23 05:09:17;;;;;;;12.68;3.45;;;3.40;99.90;;;2.14;100.00;96040.28;5089654;28;20398;-72
2022/11/23 05:11:43;;;;;;;17.50;3.92;;;3.40;99.90;;;2.12;100.00;96039.69;5088500;28;20410;-72
2022/11/23 05:14:09;;;;;;;12.07;3.50;;;3.40;99.90;;;2.14;100.00;96042.88;5078349;28;20502;-72
2022/11/23 05:16:35;;;;;;;15.02;3.38;;;3.40;99.90;;;2.12;100.00;96042.31;5069154;28;20408;-71
2022/11/23 05:19:02;;;;;;;14.37;3.80;;;3.40;99.90;;;2.15;100.00;96044.47;5069094;28;20479;-72
2022/11/23 05:21:28;;;;;;;13.95;3.15;;;3.40;99.90;;;2.21;100.00;96037.53;5069296;28;20648;-73
2022/11/23 05:23:54;;;;;;;11.57;3.40;;;3.50;99.90;;;2.27;100.00;96034.78;5066164;28;20423;-73
2022/11/23 05:26:20;;;;;;;21.50;3.75;;;3.40;99.90;;;2.24;100.00;96029.25;5064992;28;20818;-72
2022/11/23 05:28:46;;;;;;;11.93;3.17;;;3.50;99.90;;;2.24;100.00;96037.88;5064736;28;20409;-73
2022/11/23 05:31:12;;;;;;;12.27;3.30;;;3.50;99.90;;;2.21;100.00;96034.91;5066412;28;20413;-72
2022/11/23 05:33:38;;;;;;;9.53;3.27;;;3.50;99.90;;;2.22;100.00;96037.31;5058405;28;20397;-72
2022/11/23 05:36:06;;;;;;;11.57;3.00;;;3.50;99.90;;;2.23;100.00;96032.88;5057931;28;20408;-72
2022/11/23 05:38:32;;;;;;;12.35;3.08;;;3.50;99.90;;;2.25;100.00;96039.47;5065762;28;20411;-73
2022/11/23 05:40:58;;;;;;;17.07;3.77;;;3.50;99.90;;;2.25;100.00;96034.25;5060724;28;20504;-73
2022/11/23 05:43:24;;;;;;;9.90;3.63;;;3.50;99.90;;;2.25;100.00;96047.28;5068814;28;20416;-72
2022/11/23 05:45:50;;;;;;;9.70;3.03;;;3.50;99.90;;;2.32;100.00;96031.50;5071132;28;20419;-73
2022/11/23 05:48:16;;;;;;;18.63;3.50;;;3.50;99.90;;;2.37;100.00;96042.03;5065149;28;20488;-72
2022/11/23 05:50:42;;;;;;;10.65;3.10;;;3.60;99.90;;;2.46;100.00;96034.63;5068035;28;20403;-72
2022/11/23 05:53:10;;;;;;;9.85;2.85;;;3.70;99.90;;;2.51;100.00;96032.09;5066919;28;20415;-73
2022/11/23 05:55:35;;;;;;;12.50;2.95;;;3.70;99.90;;;2.47;100.00;96031.78;5068267;28;20487;-73
2022/11/23 05:58:02;;;;;;;12.25;3.05;;;3.70;99.90;;;2.56;100.00;96035.59;5066230;28;20841;-73
2022/11/23 06:00:28;;;;;;;12.65;2.88;;;3.80;99.90;;;2.64;100.00;96034.41;5062810;28;20523;-72
2022/11/23 06:02:59;;;;;;;15.52;2.97;;;3.90;99.90;;;2.64;100.00;96032.59;5064745;28;20964;-72
2022/11/23 06:05:25;;;;;;;13.37;3.73;;;3.90;99.90;;;2.71;100.00;96033.25;5065400;28;20811;-76
2022/11/23 06:13:04;;;;;;;8.98;3.10;;;3.90;99.90;;;2.62;100.00;96023.44;5480118;22;20829;-72
2022/11/23 06:15:30;;;;;;;11.20;3.20;;;3.90;99.90;;;2.58;100.00;96032.75;5127853;27;20469;-73
2022/11/23 06:17:59;;;;;;;7.63;2.50;;;3.80;99.90;;;2.51;100.00;96032.91;5120417;27;20426;-73
2022/11/23 06:20:25;;;;;;;16.80;3.40;;;3.80;99.90;;;2.46;100.00;96030.19;5127352;27;20449;-73
2022/11/23 06:22:52;;;;;;;10.83;2.57;;;3.70;99.90;;;2.41;100.00;96031.91;5125369;27;20403;-73
2022/11/23 06:25:18;;;;;;;9.65;3.08;;;3.60;99.90;;;2.33;100.00;96035.69;5121948;27;20440;-73
2022/11/23 06:27:52;;;;;;;15.85;3.50;;;3.60;99.90;;;2.26;100.00;96042.84;5122074;27;20400;-74
2022/11/23 06:30:20;;;;;;;15.50;3.58;;;3.50;99.90;;;2.21;100.00;96040.13;5122101;27;20526;-74
2022/11/23 06:32:46;;;;;;;13.30;3.35;;;3.50;99.90;;;2.18;100.00;96033.56;5112476;27;20399;-75
2022/11/23 06:35:12;;;;;;;17.23;3.17;;;3.50;99.90;;;2.14;100.00;96035.06;5132862;27;20399;-74
2022/11/23 06:37:37;;;;;;;13.18;3.00;;;3.40;99.90;;;2.09;100.00;96037.56;5133027;27;20471;-74
2022/11/23 06:40:04;;;;;;;11.07;3.00;;;3.40;99.90;;;2.03;100.00;96035.09;5132412;27;20481;-74
2022/11/23 06:42:30;;;;;;;10.05;3.13;;;3.30;99.90;;;1.99;100.00;96039.16;5131342;27;20407;-74
2022/11/23 06:44:56;;;;;;;12.77;3.38;;;3.20;99.90;;;1.96;100.00;96037.81;5132137;27;20763;-74
2022/11/23 06:47:23;;;;;;;13.70;3.50;;;3.20;99.90;;;1.98;100.00;96040.97;5132864;27;20447;-74
2022/11/23 06:49:49;;;;;;;13.20;3.58;;;3.20;99.90;;;1.98;100.00;96040.97;5130354;27;20418;-74
2022/11/23 06:52:15;;;;;;;12.00;3.05;;;3.30;99.90;;;1.99;100.00;96039.16;5123887;27;20471;-74
2022/11/23 06:54:41;;;;;;;16.15;3.33;;;3.30;99.90;;;1.95;100.00;96041.47;5130260;27;20399;-74
2022/11/23 06:57:07;;;;;;;15.87;3.40;;;3.20;99.90;;;1.93;100.00;96038.28;5132692;27;20477;-74
2022/11/23 06:59:33;;;;;;;17.77;3.58;;;3.20;99.90;;;1.89;100.00;96045.75;5132124;27;20403;-74
2022/11/23 07:01:59;;;;;;;10.30;3.20;;;3.20;99.90;;;1.91;100.00;96048.94;5132561;27;20932;-74
2022/11/23 07:04:27;;;;;;;15.05;3.60;;;3.20;99.90;;;1.85;100.00;96052.47;5123813;27;20414;-74
2022/11/23 07:06:52;;;;;;;16.65;4.10;;;3.10;99.90;;;1.80;100.00;96049.75;5125264;27;20394;-73
2022/11/23 07:09:18;;;;;;;14.43;3.30;;;3.10;99.90;;;1.82;100.00;96055.53;5124243;27;20500;-74
2022/11/23 07:11:44;;;;;;;15.02;3.40;;;3.10;99.90;;;1.85;100.00;96054.28;5120554;27;20448;-75
2022/11/23 07:14:11;;;;;;;16.27;3.38;;;3.10;99.90;;;1.81;100.00;96059.16;5120843;27;20487;-74
2022/11/23 07:16:36;;;;;;;16.48;3.80;;;3.10;99.90;;;1.82;100.00;96057.34;5111508;28;20938;-74
2022/11/23 07:19:02;;;;;;;15.33;3.40;;;3.10;99.90;;;1.83;100.00;96054.50;5119288;27;20399;-74
2022/11/23 07:21:30;;;;;;;12.43;3.28;;;3.10;99.90;;;1.82;100.00;96058.13;5132173;27;20438;-74
2022/11/23 07:23:55;;;;;;;10.77;3.40;;;3.10;99.90;;;1.80;100.00;96062.81;5130858;27;20412;-74
2022/11/23 07:26:21;;;;;;;15.73;3.40;;;3.10;99.90;;;1.80;100.00;96062.81;5132021;27;20845;-74
2022/11/23 07:28:47;;;;;;;10.65;3.35;;;3.10;99.90;;;1.77;100.00;96062.44;5132030;27;20810;-74
2022/11/23 07:31:14;;;;;;;12.68;3.30;;;3.10;99.90;;;1.76;100.00;96060.84;5132026;27;20486;-74
2022/11/23 07:33:43;;;;;;;17.15;3.20;;;3.00;99.90;;;1.73;100.00;96061.34;5130926;27;20733;-73
2022/11/23 07:36:09;;;;;;;17.20;3.75;;;3.00;99.90;;;1.70;100.00;96059.16;5131507;27;20798;-72
2022/11/23 07:38:36;;;;;;;11.35;3.00;;;3.00;99.90;;;1.71;100.00;96064.16;5131467;27;20403;-74
2022/11/23 07:41:02;;;;;;;7.28;2.97;;;3.00;99.90;;;1.75;100.00;96062.66;5122441;27;20410;-74
2022/11/23 07:43:28;;;;;;;8.80;3.33;;;3.00;99.90;;;1.76;100.00;96061.66;5117753;27;20418;-75
2022/11/23 07:45:55;;;;;;;14.43;3.42;;;3.00;99.90;;;1.79;100.00;96066.44;5119794;27;20402;-74
2022/11/23 07:48:22;;;;;;;12.63;3.45;;;3.10;99.90;;;1.78;100.00;96070.06;5119083;27;20405;-78
2022/11/23 07:50:51;;;;;;;15.93;3.83;;;3.10;99.90;;;1.86;100.00;96069.72;5119059;27;20399;-75
2022/11/23 07:53:16;;;;;;;11.85;3.25;;;3.10;99.90;;;1.90;100.00;96072.63;5124628;27;20399;-75
2022/11/23 07:55:44;;;;;;;15.80;3.78;;;3.10;99.90;;;1.95;100.00;96067.56;5098439;28;20401;-74
2022/11/23 07:58:10;;;;;;;17.30;3.78;;;3.20;99.90;;;2.00;100.00;96069.47;5108852;27;20398;-75
2022/11/23 08:00:36;;;;;;;16.70;4.30;;;3.30;99.90;;;2.10;100.00;96074.91;5130989;27;20528;-77
2022/11/23 08:03:02;;;;;;;14.40;3.50;;;3.40;99.90;;;2.14;100.00;96078.63;5123803;27;20414;-76
2022/11/23 08:05:30;;;;;;;11.30;3.28;;;3.40;99.90;;;2.18;100.00;96077.94;5122148;27;20425;-76
2022/11/23 08:07:58;;;;;;;12.15;3.72;;;3.40;99.90;;;2.24;100.00;96081.47;5121658;27;20756;-75
2022/11/23 08:10:25;;;;;;;19.37;3.50;;;3.50;99.90;;;2.26;100.00;96071.56;5126412;27;20476;-75
2022/11/23 08:12:52;;;;;;;15.70;3.53;;;3.50;99.90;;;2.32;100.00;96081.09;5129998;27;20421;-75
2022/11/23 08:15:18;;;;;;;14.32;3.67;;;3.60;99.90;;;2.38;100.00;96080.19;5127903;27;20462;-76
2022/11/23 08:17:44;;;;;;;14.73;3.88;;;3.60;99.90;;;2.46;100.00;96082.44;5110390;28;20400;-75
2022/11/23 08:20:11;;;;;;;11.18;3.30;;;3.70;99.90;;;2.52;100.00;96081.50;5110125;28;20401;-76
2022/11/23 08:22:37;;;;;;;13.73;3.78;;;3.80;99.90;;;2.65;100.00;96083.03;5113778;27;20428;-78
2022/11/23 08:25:04;;;;;;;14.67;3.13;;;3.90;99.90;;;2.65;100.00;96081.22;5127038;27;20435;-75
2022/11/23 08:27:30;;;;;;;17.75;3.30;;;3.90;99.90;;;2.78;100.00;96080.16;5122469;27;20907;-77
2022/11/23 08:29:57;;;;;;;16.70;3.00;;;4.00;99.90;;;2.81;100.00;96082.28;5118182;27;20411;-76
2022/11/23 08:32:23;;;;;;;12.95;3.03;;;4.00;99.90;;;2.88;100.00;96082.16;5120756;27;20457;-75
2022/11/23 08:34:49;;;;;;;17.65;3.00;;;4.10;99.90;;;2.93;100.00;96079.66;5121825;27;20412;-75
2022/11/23 08:37:15;;;;;;;17.13;4.00;;;4.10;99.90;;;3.01;100.00;96079.25;5121118;27;20397;-77
2022/11/23 08:39:41;;;;;;;11.00;3.20;;;4.20;99.90;;;3.19;100.00;96080.88;5125056;27;20430;-76
2022/11/23 08:42:06;;;;;;;12.88;2.78;;;4.30;99.90;;;3.24;100.00;96071.28;5104528;28;20411;-77
2022/11/23 08:44:32;;;;;;;12.35;3.15;;;4.40;99.90;;;3.42;100.00;96078.91;5123490;28;20421;-78
2022/11/23 08:47:00;;;;;;;8.55;2.70;;;4.60;99.90;;;3.46;100.00;96074.75;5105552;28;20488;-77
2022/11/23 08:49:26;;;;;;;13.07;2.63;;;4.60;99.90;;;3.41;100.00;96077.31;5130719;28;20945;-78
2022/11/23 08:51:53;;;;;;;10.52;2.78;;;4.60;99.90;;;3.46;100.00;96076.59;5131623;28;20532;-77
2022/11/23 08:54:19;;;;;;;10.90;3.05;;;4.60;99.90;;;3.44;100.00;96076.84;5130475;28;20407;-76
2022/11/23 08:56:45;;;;;;;10.73;2.50;;;4.60;99.90;;;3.56;100.00;96084.59;5131197;28;20459;-76
2022/11/23 08:59:11;;;;;;;11.63;2.67;;;4.70;99.90;;;3.76;100.00;96081.53;5132544;28;20893;-78
2022/11/23 09:01:37;;;;;;;12.27;2.58;;;4.80;99.90;;;3.75;100.00;96082.53;5130624;28;20849;-75
2022/11/23 09:04:04;;;;;;;7.70;2.50;;;4.90;99.90;;;3.83;100.00;96082.91;5128681;28;20494;-75
2022/11/23 09:06:32;;;;;;;6.30;2.50;;;5.00;99.90;;;3.90;100.00;96085.38;5119541;28;20415;-76
2022/11/23 09:08:58;;;;;;;11.20;2.88;;;5.00;99.90;;;3.94;100.00;96089.09;5126060;28;20433;-75
2022/11/23 09:11:25;;;;;;;13.70;2.90;;;5.10;99.90;;;3.97;100.00;96091.25;5122142;28;20434;-76
2022/11/23 09:13:54;;;;;;;6.30;2.53;;;5.10;99.90;;;4.19;100.00;96083.41;5120480;28;20532;-76
2022/11/23 09:16:20;;;;;;;10.38;2.65;;;5.30;99.90;;;4.32;100.00;96088.28;5123066;27;21032;-76
2022/11/23 09:18:48;;;;;;;13.57;2.55;;;5.40;99.90;;;4.53;100.00;96084.09;5119692;27;20424;-77
2022/11/23 09:21:15;;;;;;;7.82;2.53;;;5.60;99.90;;;4.95;100.00;96077.22;5124630;27;20406;-76
2022/11/23 09:23:42;;;;;;;8.67;2.63;;;6.00;99.90;;;5.54;100.00;96086.94;5120064;27;20408;-75
2022/11/23 09:26:09;;;;;;;9.77;2.53;;;6.60;99.90;;;6.20;100.00;96075.03;5117997;27;20442;-75
2022/11/23 09:28:41;;;;;;;8.20;2.38;;;7.40;99.90;;;6.40;100.00;96080.38;5109486;27;20411;-78
2022/11/23 09:31:07;;;;;;;6.75;2.38;;;7.70;99.90;;;6.81;100.00;96076.09;5105303;27;20751;-76
2022/11/23 09:33:33;;;;;;;11.00;2.30;;;8.10;99.90;;;7.22;100.00;96076.94;5128947;27;20401;-75
2022/11/23 09:36:02;;;;;;;10.20;2.42;;;8.40;99.90;;;7.17;100.00;96076.16;5119096;27;20406;-75
2022/11/23 09:38:30;;;;;;;9.75;2.40;;;8.50;99.90;;;7.54;100.00;96075.91;5130459;27;20421;-76
2022/11/23 09:41:08;;;;;;;10.48;2.53;;;8.70;99.90;;;7.60;100.00;96083.56;5126399;27;20556;-75
2022/11/23 09:43:50;;;;;;;8.70;2.33;;;8.70;99.90;;;8.11;100.00;96083.53;5126875;27;20471;-74
2022/11/23 09:46:28;;;;;;;11.55;2.58;;;8.90;99.90;;;8.35;100.00;96079.25;5126960;27;20399;-75
2022/11/23 09:49:12;;;;;;;8.00;1.98;;;9.20;99.90;;;8.90;100.00;96083.53;5124932;27;20413;-79
2022/11/23 09:51:41;;;;;;;8.43;2.15;;;9.80;99.90;;;9.31;100.00;96078.81;5123866;27;20404;-75
2022/11/23 09:54:22;;;;;;;8.95;2.30;;;10.20;99.90;;;9.69;100.00;96071.13;5128630;27;20394;-74
2022/11/23 09:56:50;;;;;;;6.10;2.05;;;10.70;99.90;;;10.15;100.00;96068.06;5126171;27;20407;-76
2022/11/23 09:59:29;;;;;;;8.63;2.33;;;11.30;99.90;;;10.53;100.00;96061.03;5126680;27;20400;-77
2022/11/23 10:01:56;;;;;;;5.50;2.00;;;11.70;99.20;;;11.10;100.00;96060.84;5111196;27;20894;-78
2022/11/23 10:04:23;;;;;;;8.70;2.13;;;12.30;99.90;;;11.57;100.00;96057.25;5123167;27;20505;-76
2022/11/23 10:06:56;;;;;;;5.00;1.88;;;12.80;96.40;;;12.29;100.00;96064.78;5130471;27;20387;-75
2022/11/23 10:09:37;;;;;;;7.03;2.00;;;13.40;99.90;;;12.88;100.00;96058.56;5119977;27;20390;-75
2022/11/23 10:12:29;;;;;;;5.83;1.73;;;14.00;98.20;;;13.36;93.17;96050.91;5132881;27;20457;-75
2022/11/23 10:15:11;;;;;;;4.68;1.80;;;14.50;93.70;;;13.84;100.00;96045.75;5123741;27;20399;-75
2022/11/23 10:18:08;;;;;;;7.77;1.93;;;15.00;95.90;;;14.27;84.86;96045.97;5124614;27;21140;-75
2022/11/23 10:21:00;;;;;;;6.07;1.73;;;15.40;88.00;;;14.50;73.38;96049.38;5124545;27;20407;-75
2022/11/23 10:23:53;;;;;;;8.23;2.28;;;15.50;83.60;;;14.72;69.27;96040.53;5123494;27;20507;-74
2022/11/23 10:26:28;;;;;;;9.40;2.35;;;15.70;79.00;;;14.92;72.46;96044.47;5123102;27;20434;-76